Harold B Dodd — WDI4802 — position and weather

sailwx.info

Track history (hours):
 
Tides and Currents Weather Stations Pressure Air Temp Water Temp Dewpoint Dewpoint Depression Visibility Wind Speed Wind Dir Waves Ship Positions

Harold B Dodd

Owner: ACBL River Operations LLC, Jeffersonville, IN. More information available from US FCC via Universal Licensing System and Coast Guard Vessel Documentation Center.

Last reported at 2018-Jun-19 07:42 UTC. Time now 2018-Jun-24 14:32 UTC.
Position N 32°57' W 091°07'.

Length 57 m; draft 2.9 m.

Type: Towing. MMSI: 367702150.

Date/timePositionNaut miles runAvg speedWind from/ knotsBaromVisibWave heightAir tempDewpointWater temp
2018-Jun-19 07:42N 32°57' W 091°07'1 5.0
2018-Jun-19 07:30N 32°57' W 091°05'4 4.0
2018-Jun-19 06:29N 32°53' W 091°05'3 4.5
2018-Jun-19 05:49N 32°51' W 091°07'1 4.5
2018-Jun-19 05:30N 32°50' W 091°08'2 4.0
2018-Jun-19 05:00N 32°48' W 091°09'2 4.5
2018-Jun-19 04:30N 32°46' W 091°09'2 3.8
2018-Jun-19 04:00N 32°44' W 091°08'2 4.2
2018-Jun-19 03:30N 32°44' W 091°06'2 4.6
2018-Jun-19 03:00N 32°43' W 091°03'2 4.2
2018-Jun-19 02:30N 32°41' W 091°04'3 5.0
2018-Jun-19 02:00N 32°40' W 091°07'2 3.1
2018-Jun-19 01:30N 32°40' W 091°09'2 4.4
2018-Jun-19 01:00N 32°37' W 091°09'1 1.7
2018-Jun-19 00:30N 32°37' W 091°09'1 1.5
2018-Jun-19 00:00N 32°36' W 091°09'2 4.8
2018-Jun-18 23:30N 32°34' W 091°07'2 4.2
2018-Jun-18 23:00N 32°32' W 091°06'2 4.7
2018-Jun-18 22:30N 32°30' W 091°07'2 4.9
2018-Jun-18 22:00N 32°28' W 091°06'2 5.0
2018-Jun-18 21:30N 32°26' W 091°03'2 4.9
2018-Jun-18 21:00N 32°26' W 091°01'2 3.9
2018-Jun-18 20:30N 32°24' W 090°59'2 4.8
2018-Jun-18 20:00N 32°22' W 091°00'2 4.0
2018-Jun-18 19:30N 32°21' W 090°58'0 0.2
2018-Jun-18 19:00N 32°21' W 090°58'1 2.0
2018-Jun-18 18:30N 32°21' W 090°57'2 4.4
2018-Jun-18 18:00N 32°20' W 090°54'2 3.8
2018-Jun-18 17:30N 32°18' W 090°55'1 1.7
2018-Jun-18 17:00N 32°18' W 090°56'2 4.7
2018-Jun-18 16:30N 32°16' W 090°58'2 4.5
2018-Jun-18 16:00N 32°14' W 090°59'2 5.0
2018-Jun-18 15:30N 32°12' W 090°60'2 4.4
2018-Jun-18 15:00N 32°09' W 091°00'2 4.7
2018-Jun-18 14:30N 32°07' W 091°01'2 4.5
2018-Jun-18 13:57N 32°08' W 091°04'2 4.5
2018-Jun-18 13:30N 32°08' W 091°06'2 4.5
2018-Jun-18 13:00N 32°06' W 091°05'0 0.4
2018-Jun-18 12:25N 32°05' W 091°05'0 0.0
2018-Jun-18 12:00N 32°05' W 091°05'0 0.1
2018-Jun-18 11:30N 32°05' W 091°05'0 0.0
2018-Jun-18 10:53N 32°05' W 091°05'1 3.2
2018-Jun-18 10:28N 32°05' W 091°04'2 4.7
2018-Jun-18 09:57N 32°02' W 091°04'5 4.7
2018-Jun-18 08:53N 31°59' W 091°09'2 4.8
2018-Jun-18 08:28N 31°58' W 091°11'9 4.1
2018-Jun-18 06:18N 31°51' W 091°18'  
2018-Jun-14 16:02N 31°59' W 091°11'2 7.2
2018-Jun-14 15:43N 31°59' W 091°08'1 7.1
2018-Jun-14 15:30N 31°59' W 091°06'4 7.6
2018-Jun-14 15:00N 32°03' W 091°04'3 6.8
2018-Jun-14 14:30N 32°06' W 091°05'3 5.0
2018-Jun-14 14:00N 32°08' W 091°05'4 7.4
2018-Jun-14 13:30N 32°08' W 091°01'4 7.7
2018-Jun-14 13:00N 32°11' W 090°60'4 7.7
2018-Jun-14 12:30N 32°15' W 090°59'4 7.6
2018-Jun-14 12:00N 32°18' W 090°55'3 5.6
2018-Jun-14 11:30N 32°21' W 090°55'4 7.6
2018-Jun-14 11:00N 32°21' W 090°60'3 7.0
2018-Jun-14 10:30N 32°25' W 090°60'4 7.5
2018-Jun-14 10:00N 32°26' W 091°04'4 7.6
2018-Jun-14 09:30N 32°29' W 091°07'4 7.8
2018-Jun-14 08:59N 32°33' W 091°06'4 7.5
2018-Jun-14 08:30N 32°36' W 091°08'4 7.2
2018-Jun-14 08:00N 32°39' W 091°09'5 3.4
2018-Jun-14 06:28N 32°45' W 091°09'13 6.7
2018-Jun-14 04:35N 32°57' W 091°05'1 8.1
2018-Jun-14 04:30N 32°57' W 091°06'  
Track history (hours):
 
Tides and Currents Weather Stations Pressure Air Temp Water Temp Dewpoint Dewpoint Depression Visibility Wind Speed Wind Dir Waves Ship Positions

Harold B Dodd

Owner: ACBL River Operations LLC, Jeffersonville, IN. More information available from US FCC via Universal Licensing System and Coast Guard Vessel Documentation Center.

Last reported at 2018-Jun-19 07:42 UTC. Time now 2018-Jun-24 14:32 UTC.
Position N 32°57' W 091°07'.

Length 57 m; draft 2.9 m.

Type: Towing. MMSI: 367702150.

Date/timePositionNaut miles runAvg speedWind from/ knotsBaromVisibWave heightAir tempDewpointWater temp
2018-Jun-19 07:42N 32°57' W 091°07'1 5.0
2018-Jun-19 07:30N 32°57' W 091°05'4 4.0
2018-Jun-19 06:29N 32°53' W 091°05'3 4.5
2018-Jun-19 05:49N 32°51' W 091°07'1 4.5
2018-Jun-19 05:30N 32°50' W 091°08'2 4.0
2018-Jun-19 05:00N 32°48' W 091°09'2 4.5
2018-Jun-19 04:30N 32°46' W 091°09'2 3.8
2018-Jun-19 04:00N 32°44' W 091°08'2 4.2
2018-Jun-19 03:30N 32°44' W 091°06'2 4.6
2018-Jun-19 03:00N 32°43' W 091°03'2 4.2
2018-Jun-19 02:30N 32°41' W 091°04'3 5.0
2018-Jun-19 02:00N 32°40' W 091°07'2 3.1
2018-Jun-19 01:30N 32°40' W 091°09'2 4.4
2018-Jun-19 01:00N 32°37' W 091°09'1 1.7
2018-Jun-19 00:30N 32°37' W 091°09'1 1.5
2018-Jun-19 00:00N 32°36' W 091°09'2 4.8
2018-Jun-18 23:30N 32°34' W 091°07'2 4.2
2018-Jun-18 23:00N 32°32' W 091°06'2 4.7
2018-Jun-18 22:30N 32°30' W 091°07'2 4.9
2018-Jun-18 22:00N 32°28' W 091°06'2 5.0
2018-Jun-18 21:30N 32°26' W 091°03'2 4.9
2018-Jun-18 21:00N 32°26' W 091°01'2 3.9
2018-Jun-18 20:30N 32°24' W 090°59'2 4.8
2018-Jun-18 20:00N 32°22' W 091°00'2 4.0
2018-Jun-18 19:30N 32°21' W 090°58'0 0.2
2018-Jun-18 19:00N 32°21' W 090°58'1 2.0
2018-Jun-18 18:30N 32°21' W 090°57'2 4.4
2018-Jun-18 18:00N 32°20' W 090°54'2 3.8
2018-Jun-18 17:30N 32°18' W 090°55'1 1.7
2018-Jun-18 17:00N 32°18' W 090°56'2 4.7
2018-Jun-18 16:30N 32°16' W 090°58'2 4.5
2018-Jun-18 16:00N 32°14' W 090°59'2 5.0
2018-Jun-18 15:30N 32°12' W 090°60'2 4.4
2018-Jun-18 15:00N 32°09' W 091°00'2 4.7
2018-Jun-18 14:30N 32°07' W 091°01'2 4.5
2018-Jun-18 13:57N 32°08' W 091°04'2 4.5
2018-Jun-18 13:30N 32°08' W 091°06'2 4.5
2018-Jun-18 13:00N 32°06' W 091°05'0 0.4
2018-Jun-18 12:25N 32°05' W 091°05'0 0.0
2018-Jun-18 12:00N 32°05' W 091°05'0 0.1
2018-Jun-18 11:30N 32°05' W 091°05'0 0.0
2018-Jun-18 10:53N 32°05' W 091°05'1 3.2
2018-Jun-18 10:28N 32°05' W 091°04'2 4.7
2018-Jun-18 09:57N 32°02' W 091°04'5 4.7
2018-Jun-18 08:53N 31°59' W 091°09'2 4.8
2018-Jun-18 08:28N 31°58' W 091°11'9 4.1
2018-Jun-18 06:18N 31°51' W 091°18'  
2018-Jun-14 16:02N 31°59' W 091°11'2 7.2
2018-Jun-14 15:43N 31°59' W 091°08'1 7.1
2018-Jun-14 15:30N 31°59' W 091°06'4 7.6
2018-Jun-14 15:00N 32°03' W 091°04'3 6.8
2018-Jun-14 14:30N 32°06' W 091°05'3 5.0
2018-Jun-14 14:00N 32°08' W 091°05'4 7.4
2018-Jun-14 13:30N 32°08' W 091°01'4 7.7
2018-Jun-14 13:00N 32°11' W 090°60'4 7.7
2018-Jun-14 12:30N 32°15' W 090°59'4 7.6
2018-Jun-14 12:00N 32°18' W 090°55'3 5.6
2018-Jun-14 11:30N 32°21' W 090°55'4 7.6
2018-Jun-14 11:00N 32°21' W 090°60'3 7.0
2018-Jun-14 10:30N 32°25' W 090°60'4 7.5
2018-Jun-14 10:00N 32°26' W 091°04'4 7.6
2018-Jun-14 09:30N 32°29' W 091°07'4 7.8
2018-Jun-14 08:59N 32°33' W 091°06'4 7.5
2018-Jun-14 08:30N 32°36' W 091°08'4 7.2
2018-Jun-14 08:00N 32°39' W 091°09'5 3.4
2018-Jun-14 06:28N 32°45' W 091°09'13 6.7
2018-Jun-14 04:35N 32°57' W 091°05'1 8.1
2018-Jun-14 04:30N 32°57' W 091°06'  

Dump ship's entire track history